Time;durP1;ratioP1;P1;durP2;ratioP2;P2;SDS_P1;SDS_P2;PMS_P1;PMS_P2;Temp;Humidity;BMP_temperature;BMP_pressure;BME280_temperature;BME280_humidity;BME280_pressure;Samples;Min_cycle;Max_cycle;Signal;HPM_P1;HPM_P2
2021/07/20 00:00:15;;;;;;;16.57;10.50;;;;;;;22.48;71.85;100708.94;5112980;28;20178;-60
2021/07/20 00:02:48;;;;;;;12.53;10.83;;;;;;;22.31;71.31;100670.63;5112421;28;20239;-60
2021/07/20 00:05:20;;;;;;;11.73;10.70;;;;;;;22.46;71.34;100708.66;5113164;28;20178;-60
2021/07/20 00:07:46;;;;;;;12.33;11.03;;;;;;;22.53;71.16;100713.03;5112633;28;20210;-60
2021/07/20 00:10:15;;;;;;;16.17;10.57;;;;;;;22.39;71.79;100700.69;5112496;28;20647;-60
2021/07/20 00:12:41;;;;;;;15.43;10.47;;;;;;;22.23;72.08;100669.59;5112362;28;20182;-60
2021/07/20 00:15:09;;;;;;;14.87;11.27;;;;;;;22.49;72.19;100709.69;5112889;28;20185;-60
2021/07/20 00:17:36;;;;;;;13.03;11.00;;;;;;;21.82;72.14;100593.09;5112916;28;20181;-60
2021/07/20 00:20:04;;;;;;;16.63;10.73;;;;;;;22.63;72.00;100715.06;5112320;28;20253;-60
2021/07/20 00:22:29;;;;;;;15.93;10.97;;;;;;;22.55;71.43;100696.34;5112166;28;20202;-60
2021/07/20 00:24:55;;;;;;;15.57;11.50;;;;;;;22.47;71.69;100692.50;5112270;28;20244;-61
2021/07/20 00:27:20;;;;;;;12.00;10.73;;;;;;;22.48;72.48;100702.50;5112657;28;20265;-60
2021/07/20 00:29:46;;;;;;;12.50;11.23;;;;;;;22.30;72.13;100700.91;5111805;28;20170;-61
2021/07/20 00:32:11;;;;;;;15.33;11.07;;;;;;;21.45;72.01;100575.53;5111992;28;20187;-61
2021/07/20 00:34:38;;;;;;;13.77;11.57;;;;;;;22.25;72.13;100696.03;5112281;28;20731;-60
2021/07/20 00:37:05;;;;;;;12.63;11.20;;;;;;;22.26;72.45;100706.03;5112438;28;20206;-60
2021/07/20 00:39:31;;;;;;;14.40;12.03;;;;;;;22.29;72.82;100707.06;5111603;28;20184;-60
2021/07/20 00:41:56;;;;;;;14.83;11.93;;;;;;;22.22;72.85;100707.56;5112042;28;20233;-61
2021/07/20 00:44:22;;;;;;;18.03;11.57;;;;;;;22.18;72.13;100718.34;5111907;28;20176;-60
2021/07/20 00:46:48;;;;;;;13.30;12.00;;;;;;;21.99;72.90;100701.09;5112035;28;20182;-61
2021/07/20 00:49:13;;;;;;;16.03;11.93;;;;;;;22.05;73.43;100713.16;5112100;28;20744;-60
2021/07/20 00:51:39;;;;;;;13.70;11.53;;;;;;;22.03;72.72;100709.31;5111735;28;20182;-60
2021/07/20 00:54:04;;;;;;;17.83;11.97;;;;;;;21.90;72.80;100706.22;5093473;28;20206;-60
2021/07/20 00:56:32;;;;;;;19.17;11.40;;;;;;;21.23;73.14;100595.19;5112067;28;20170;-61
2021/07/20 00:58:58;;;;;;;15.13;11.33;;;;;;;22.05;72.60;100709.59;5111278;28;20178;-60
2021/07/20 01:01:24;;;;;;;11.80;10.60;;;;;;;22.08;72.29;100698.06;5111847;28;20182;-60
2021/07/20 01:03:51;;;;;;;14.50;11.17;;;;;;;21.71;72.34;100643.84;5111379;28;20227;-60
2021/07/20 01:06:20;;;;;;;17.50;10.77;;;;;;;22.13;72.27;100704.97;5111761;28;20200;-60
2021/07/20 01:08:47;;;;;;;14.73;12.13;;;;;;;22.16;73.03;100715.25;5111155;28;20560;-61
2021/07/20 01:11:14;;;;;;;14.60;11.33;;;;;;;22.05;72.41;100709.59;5111506;28;20659;-60
2021/07/20 01:13:40;;;;;;;14.33;12.40;;;;;;;22.03;73.17;100695.22;5111200;28;20263;-60
2021/07/20 01:16:07;;;;;;;13.90;12.50;;;;;;;21.85;72.78;100701.31;5111833;28;20665;-60
2021/07/20 01:18:34;;;;;;;13.17;10.70;;;;;;;21.95;73.52;100702.63;5111360;28;20595;-61
2021/07/20 01:20:59;;;;;;;17.63;12.33;;;;;;;21.54;73.11;100631.69;5111153;28;20185;-60
2021/07/20 01:23:43;;;;;;;16.17;11.30;;;;;;;22.09;72.61;100707.28;5111024;28;20170;-60
2021/07/20 01:26:08;;;;;;;19.63;12.27;;;;;;;22.01;73.00;100709.81;5111694;28;20162;-60
2021/07/20 01:28:37;;;;;;;15.60;12.63;;;;;;;21.42;72.71;100601.13;5111086;28;20674;-60
2021/07/20 01:31:06;;;;;;;17.17;11.10;;;;;;;22.15;72.57;100697.53;5111292;28;20707;-60
2021/07/20 01:33:34;;;;;;;15.63;11.60;;;;;;;22.20;72.01;100696.00;5110769;28;20199;-60
2021/07/20 01:36:03;;;;;;;17.40;11.43;;;;;;;22.26;71.95;100696.81;5111185;28;20182;-60
2021/07/20 01:38:30;;;;;;;14.33;12.67;;;;;;;22.24;71.45;100697.31;5111119;28;20189;-60
2021/07/20 01:40:59;;;;;;;16.87;11.63;;;;;;;22.13;72.01;100702.16;5110686;28;20589;-60
2021/07/20 01:43:26;;;;;;;14.73;12.47;;;;;;;21.30;72.63;100579.84;5110948;28;20644;-60
2021/07/20 01:45:55;;;;;;;15.70;13.53;;;;;;;21.90;72.62;100703.41;5111162;28;20192;-60
2021/07/20 01:48:23;;;;;;;16.97;13.27;;;;;;;22.05;72.58;100698.31;5110818;28;20174;-60
2021/07/20 01:50:49;;;;;;;14.80;13.40;;;;;;;21.99;72.43;100709.56;5110741;28;20580;-61
2021/07/20 01:53:16;;;;;;;16.10;13.30;;;;;;;21.89;72.93;100702.63;5110096;28;20206;-60
2021/07/20 01:55:41;;;;;;;15.73;13.67;;;;;;;21.98;72.95;100710.06;5111667;28;20186;-60
2021/07/20 01:58:07;;;;;;;14.93;13.30;;;;;;;22.08;72.70;100702.91;5110796;28;20255;-60
2021/07/20 02:00:33;;;;;;;16.07;13.57;;;;;;;22.08;72.78;100698.06;5111141;28;20178;-60
2021/07/20 02:10:49;;;;;;;17.50;13.90;;;;;;;21.82;73.07;100666.44;5110930;28;20182;-60
2021/07/20 02:13:16;;;;;;;20.30;14.77;;;;;;;22.15;72.56;100713.72;5110360;28;20231;-60
2021/07/20 02:15:42;;;;;;;20.23;14.60;;;;;;;22.22;72.49;100708.31;5092555;28;20193;-60
2021/07/20 02:18:09;;;;;;;20.63;14.83;;;;;;;21.85;72.38;100651.28;5110565;28;20277;-61
2021/07/20 02:20:40;;;;;;;23.77;15.13;;;;;;;22.23;72.52;100711.94;5111264;28;20178;-60
2021/07/20 02:23:06;;;;;;;17.03;14.63;;;;;;;22.28;72.39;100711.16;5110206;28;20542;-60
2021/07/20 02:25:32;;;;;;;19.40;15.70;;;;;;;22.25;72.27;100710.16;5110780;28;20300;-60
2021/07/20 02:27:59;;;;;;;17.70;15.83;;;;;;;22.16;71.94;100715.25;5110266;28;20663;-60
2021/07/20 02:30:25;;;;;;;21.03;16.40;;;;;;;22.05;72.46;100718.06;5110589;28;20206;-60
2021/07/20 02:32:52;;;;;;;18.90;16.40;;;;;;;21.96;72.57;100718.28;5109891;28;20246;-60
2021/07/20 02:35:23;;;;;;;19.30;16.53;;;;;;;21.86;72.89;100725.44;5110507;28;20170;-61
2021/07/20 02:37:50;;;;;;;20.77;17.60;;;;;;;21.60;73.81;100725.53;5110211;28;20216;-60
2021/07/20 02:40:17;;;;;;;22.47;17.57;;;;;;;21.32;74.35;100709.75;5110843;28;20245;-60
2021/07/20 02:42:44;;;;;;;18.00;16.10;;;;;;;21.40;74.78;100736.22;5109644;28;20310;-60
2021/07/20 02:45:11;;;;;;;20.10;16.90;;;;;;;21.29;75.12;100713.59;5105220;28;20186;-60
2021/07/20 02:47:36;;;;;;;20.97;16.53;;;;;;;21.36;75.18;100730.03;5108013;28;20170;-60
2021/07/20 02:50:07;;;;;;;19.60;17.60;;;;;;;21.21;75.67;100735.84;5110235;28;20662;-60
2021/07/20 02:52:36;;;;;;;20.83;17.40;;;;;;;21.13;75.87;100734.75;5109984;28;20174;-60
2021/07/20 02:55:02;;;;;;;19.10;17.20;;;;;;;21.21;75.84;100733.03;5092267;28;20206;-60
2021/07/20 02:57:29;;;;;;;19.67;17.57;;;;;;;21.35;76.08;100722.84;5110242;28;20537;-61
2021/07/20 02:59:56;;;;;;;19.63;17.53;;;;;;;21.52;75.96;100732.16;5110004;28;20227;-60
2021/07/20 03:02:23;;;;;;;19.70;17.27;;;;;;;21.69;75.56;100725.34;5091702;28;20219;-60
2021/07/20 03:04:49;;;;;;;19.70;16.53;;;;;;;21.84;75.29;100730.78;5114004;28;20735;-60
2021/07/20 03:07:18;;;;;;;18.43;16.27;;;;;;;21.94;74.99;100729.28;5114043;28;20287;-60
2021/07/20 03:09:48;;;;;;;21.10;17.47;;;;;;;21.87;73.73;100729.78;5113390;28;20653;-60
2021/07/20 03:12:15;;;;;;;20.97;17.27;;;;;;;21.73;73.98;100728.72;5113571;28;20245;-60
2021/07/20 03:14:42;;;;;;;20.37;17.73;;;;;;;21.14;73.90;100626.38;5113854;28;20229;-60
2021/07/20 03:17:08;;;;;;;20.07;17.83;;;;;;;21.85;73.77;100741.56;5114126;28;20242;-60
2021/07/20 03:19:35;;;;;;;19.20;17.33;;;;;;;21.72;74.02;100746.91;5113701;28;20235;-60
2021/07/20 03:22:06;;;;;;;21.23;17.67;;;;;;;21.62;74.23;100739.91;5114258;28;20198;-61
2021/07/20 03:24:35;;;;;;;19.90;17.43;;;;;;;21.73;74.33;100756.91;5113619;28;20258;-60
2021/07/20 03:27:03;;;;;;;20.90;17.70;;;;;;;21.66;74.49;100719.94;5113674;28;20217;-60
2021/07/20 03:29:29;;;;;;;20.37;16.97;;;;;;;22.05;74.08;100754.75;5113191;28;20253;-60
2021/07/20 03:31:56;;;;;;;18.53;16.13;;;;;;;22.04;73.24;100728.56;5113712;28;20170;-61
2021/07/20 03:34:23;;;;;;;22.67;18.13;;;;;;;22.27;73.21;100760.44;5112892;28;20194;-60
2021/07/20 03:36:49;;;;;;;18.23;16.33;;;;;;;22.09;72.86;100758.06;5113201;28;20194;-60
2021/07/20 03:39:16;;;;;;;22.83;17.43;;;;;;;22.00;73.23;100763.97;5113234;28;20222;-60
2021/07/20 03:41:44;;;;;;;19.53;17.13;;;;;;;21.79;73.26;100745.66;5113255;28;20250;-60
2021/07/20 03:44:10;;;;;;;22.90;17.77;;;;;;;21.28;73.28;100635.97;5113002;28;20174;-60
2021/07/20 03:46:39;;;;;;;22.93;17.53;;;;;;;22.28;72.91;100764.81;5113504;28;20257;-60
2021/07/20 03:49:04;;;;;;;19.50;16.33;;;;;;;22.25;73.28;100748.88;5113010;28;20181;-61
2021/07/20 03:51:30;;;;;;;20.37;16.87;;;;;;;22.41;72.83;100768.69;5094936;28;20186;-60
2021/07/20 03:53:56;;;;;;;20.67;16.70;;;;;;;22.22;72.85;100770.44;5112611;28;20249;-60
2021/07/20 03:56:23;;;;;;;18.67;16.77;;;;;;;21.29;72.89;100646.69;5113357;28;20194;-60
2021/07/20 03:58:50;;;;;;;19.63;17.60;;;;;;;22.13;73.23;100773.50;5112683;28;20213;-60
2021/07/20 04:01:17;;;;;;;19.00;16.97;;;;;;;21.88;73.63;100760.31;5113132;28;20182;-60
2021/07/20 04:03:46;;;;;;;18.73;16.77;;;;;;;22.10;73.64;100780.16;5100793;28;20182;-60
2021/07/20 04:06:15;;;;;;;19.00;17.00;;;;;;;22.15;73.45;100778.66;5092655;28;20178;-60
2021/07/20 04:08:42;;;;;;;20.23;17.70;;;;;;;21.64;73.30;100706.31;5078379;28;20267;-61
2021/07/20 04:11:08;;;;;;;21.63;17.17;;;;;;;22.17;72.88;100776.06;5112905;28;20170;-60
2021/07/20 04:13:35;;;;;;;23.17;16.97;;;;;;;22.26;72.67;100789.97;5112556;28;20671;-60
2021/07/20 04:16:05;;;;;;;18.43;16.50;;;;;;;21.92;73.37;100734.69;5112167;28;20258;-60
2021/07/20 04:18:34;;;;;;;17.07;15.37;;;;;;;22.35;72.45;100798.97;5112269;28;20193;-60
2021/07/20 04:21:01;;;;;;;18.43;16.63;;;;;;;22.32;72.44;100802.78;5112615;28;20170;-61
2021/07/20 04:23:28;;;;;;;17.97;16.10;;;;;;;22.49;73.36;100808.53;5112082;28;20203;-60
2021/07/20 04:25:54;;;;;;;18.37;16.47;;;;;;;22.44;71.86;100793.13;5112532;28;20624;-60
2021/07/20 04:28:22;;;;;;;17.93;16.03;;;;;;;22.50;71.67;100805.19;5112158;28;20178;-61
2021/07/20 04:30:49;;;;;;;17.83;16.00;;;;;;;22.49;71.77;100817.78;5112306;28;20170;-60
2021/07/20 04:33:26;;;;;;;18.63;16.70;;;;;;;22.47;72.13;100802.63;5112045;28;20198;-60
2021/07/20 04:35:53;;;;;;;19.10;15.83;;;;;;;22.53;71.76;100811.88;5112310;28;20196;-60
2021/07/20 04:38:20;;;;;;;23.93;16.57;;;;;;;22.66;71.68;100810.09;5112124;28;20174;-60
2021/07/20 04:40:46;;;;;;;18.27;16.50;;;;;;;22.58;71.09;100780.06;5111926;28;20202;-60
2021/07/20 04:43:12;;;;;;;18.93;16.50;;;;;;;22.85;71.27;100816.03;5112125;28;20247;-60
2021/07/20 04:45:44;;;;;;;17.23;15.43;;;;;;;22.88;70.13;100807.31;5112005;28;20174;-60
2021/07/20 04:48:13;;;;;;;17.70;15.70;;;;;;;22.69;70.19;100794.19;5111873;28;20268;-61
2021/07/20 04:50:39;;;;;;;17.77;15.30;;;;;;;22.76;70.30;100819.09;5112011;28;20263;-60
2021/07/20 04:53:05;;;;;;;18.57;16.57;;;;;;;22.66;70.58;100823.44;5111636;28;20206;-60
2021/07/20 04:55:31;;;;;;;19.70;16.03;;;;;;;22.01;70.80;100711.88;5111949;28;20182;-60
2021/07/20 04:58:03;;;;;;;18.93;16.37;;;;;;;22.70;71.17;100821.94;5097519;27;20269;-60
2021/07/20 05:00:29;;;;;;;17.23;15.43;;;;;;;22.72;70.83;100824.25;5106757;27;20185;-60
2021/07/20 05:02:58;;;;;;;17.27;15.63;;;;;;;22.74;70.70;100825.28;5108061;27;20214;-60
2021/07/20 05:05:25;;;;;;;17.83;15.97;;;;;;;22.92;71.06;100821.19;5108509;27;20190;-60
2021/07/20 05:07:52;;;;;;;17.93;14.73;;;;;;;22.95;69.66;100826.59;5083937;28;20562;-60
2021/07/20 05:10:19;;;;;;;15.90;14.30;;;;;;;23.13;69.08;100825.31;5096466;28;21076;-60
2021/07/20 05:12:44;;;;;;;18.70;14.80;;;;;;;;;;5085253;28;20862;-60
2021/07/20 05:15:14;;;;;;;15.93;14.40;;;;;;;23.36;68.24;100829.69;5097073;28;20489;-60
2021/07/20 05:17:40;;;;;;;15.90;14.40;;;;;;;22.81;67.91;100706.09;5107854;27;20190;-60
2021/07/20 05:20:07;;;;;;;16.77;14.63;;;;;;;23.76;67.20;100832.72;5090946;28;20182;-60
2021/07/20 05:22:35;;;;;;;15.07;13.63;;;;;;;23.92;66.55;100837.59;5107084;28;20182;-60
2021/07/20 05:25:04;;;;;;;19.60;13.60;;;;;;;23.94;66.22;100837.84;5108832;28;20228;-60
2021/07/20 05:27:35;;;;;;;15.17;13.67;;;;;;;23.94;65.87;100843.50;5100659;28;20585;-61
2021/07/20 05:30:01;;;;;;;15.07;13.43;;;;;;;23.95;65.87;100835.78;5108283;28;20269;-60
2021/07/20 05:32:27;;;;;;;15.17;13.57;;;;;;;23.88;65.84;100848.38;5104582;28;20182;-60
2021/07/20 05:34:53;;;;;;;14.77;13.23;;;;;;;23.85;65.89;100843.75;5107002;28;20216;-60
2021/07/20 05:37:20;;;;;;;13.80;12.40;;;;;;;23.89;65.98;100852.03;5089142;28;20185;-60
2021/07/20 05:39:47;;;;;;;14.20;12.67;;;;;;;23.86;65.95;100848.16;5108746;28;20209;-60
2021/07/20 05:42:17;;;;;;;16.57;12.07;;;;;;;23.13;66.32;100758.22;5109549;27;20762;-60
2021/07/20 05:44:47;;;;;;;13.47;12.07;;;;;;;23.77;66.73;100837.09;5106120;28;20174;-60
2021/07/20 05:47:15;;;;;;;15.27;12.20;;;;;;;23.32;66.31;100766.97;5107317;28;20182;-60
2021/07/20 05:49:40;;;;;;;16.03;12.60;;;;;;;23.77;66.51;100839.94;5106832;28;20174;-60
2021/07/20 05:52:07;;;;;;;12.83;11.50;;;;;;;23.92;66.08;100831.94;5105515;28;20181;-60
2021/07/20 05:54:33;;;;;;;13.93;12.53;;;;;;;23.39;66.10;100732.53;5107167;28;20230;-60
2021/07/20 05:57:00;;;;;;;12.60;11.20;;;;;;;23.67;64.45;100744.50;5107186;28;20193;-60
2021/07/20 05:59:26;;;;;;;14.20;11.90;;;;;;;24.45;64.53;100839.16;5108083;28;20263;-60
2021/07/20 06:01:52;;;;;;;13.90;11.80;;;;;;;24.64;64.14;100840.91;5107628;28;20247;-60
2021/07/20 06:04:19;;;;;;;12.63;11.43;;;;;;;24.53;64.59;100843.78;5107929;28;20235;-60
2021/07/20 06:06:49;;;;;;;12.83;11.43;;;;;;;24.01;64.30;100757.28;5105684;28;20190;-60
2021/07/20 06:09:17;;;;;;;13.50;11.30;;;;;;;24.70;64.26;100840.84;5100237;28;20182;-60
2021/07/20 06:11:44;;;;;;;13.07;11.47;;;;;;;24.74;63.74;100855.53;5107993;28;20613;-60
2021/07/20 06:14:10;;;;;;;13.17;11.67;;;;;;;24.77;62.95;100846.00;5106677;28;20190;-60
2021/07/20 06:16:38;;;;;;;12.97;11.00;;;;;;;24.41;62.07;100767.88;5097428;28;20271;-60
2021/07/20 06:19:04;;;;;;;12.77;11.20;;;;;;;25.10;62.66;100838.00;5108371;28;20178;-60
2021/07/20 06:21:33;;;;;;;12.47;10.77;;;;;;;24.88;62.33;100851.56;5106590;28;20178;-60
2021/07/20 06:24:01;;;;;;;15.37;11.43;;;;;;;24.90;62.81;100855.44;5105998;28;20185;-60
2021/07/20 06:26:28;;;;;;;12.20;10.90;;;;;;;25.16;62.30;100857.81;5108448;28;20186;-60
2021/07/20 06:28:57;;;;;;;11.93;10.63;;;;;;;25.23;62.11;100855.16;5107309;28;20182;-60
2021/07/20 06:31:25;;;;;;;12.40;11.20;;;;;;;25.44;62.35;100859.13;5107368;28;20188;-59
2021/07/20 06:33:50;;;;;;;14.60;11.20;;;;;;;25.70;61.09;100861.50;5106368;28;20289;-60
2021/07/20 06:36:17;;;;;;;11.53;10.43;;;;;;;25.66;60.63;100861.00;5104139;28;20232;-61
2021/07/20 06:38:44;;;;;;;11.07;9.97;;;;;;;25.64;60.33;100867.19;5100540;28;20186;-59
2021/07/20 06:41:11;;;;;;;11.83;10.60;;;;;;;25.42;60.89;100866.63;5111961;28;20224;-61
2021/07/20 06:43:38;;;;;;;13.60;10.73;;;;;;;25.25;61.42;100869.63;5110670;28;20163;-61
2021/07/20 06:46:06;;;;;;;12.57;10.53;;;;;;;25.46;61.56;100890.59;5112439;28;20251;-59
2021/07/20 06:48:33;;;;;;;14.47;10.63;;;;;;;25.48;60.68;100864.53;5111784;28;20663;-61
2021/07/20 06:50:59;;;;;;;11.60;10.40;;;;;;;25.26;59.71;100773.94;5111713;28;20190;-61
2021/07/20 06:53:25;;;;;;;11.67;10.47;;;;;;;26.12;59.06;100866.47;5110338;28;20209;-62
2021/07/20 06:55:57;;;;;;;11.63;9.83;;;;;;;26.22;58.60;100859.91;5093843;28;20282;-61
2021/07/20 06:58:25;;;;;;;14.93;10.63;;;;;;;26.66;59.38;100879.22;5111219;28;20186;-62
2021/07/20 07:00:54;;;;;;;10.73;9.63;;;;;;;26.15;57.92;100873.94;5112307;28;20630;-61
2021/07/20 07:03:24;;;;;;;14.40;9.30;;;;;;;25.87;58.16;100876.25;5110749;28;20644;-62
2021/07/20 07:05:52;;;;;;;11.43;10.00;;;;;;;25.70;59.52;100870.00;5111848;28;20609;-61
2021/07/20 07:08:18;;;;;;;12.10;9.80;;;;;;;25.59;59.98;100850.25;5111622;28;20329;-61
2021/07/20 07:10:45;;;;;;;11.97;10.47;;;;;;;25.63;60.64;100887.59;5110895;28;20214;-62
2021/07/20 07:13:12;;;;;;;11.60;9.87;;;;;;;25.30;59.83;100758.19;5110054;28;20589;-62
2021/07/20 07:15:38;;;;;;;12.00;9.67;;;;;;;26.42;58.50;100882.13;5111073;28;20247;-61
2021/07/20 07:18:05;;;;;;;12.10;9.93;;;;;;;25.92;57.96;100781.78;5110604;28;20265;-61
2021/07/20 07:20:31;;;;;;;13.97;10.23;;;;;;;26.88;57.70;100869.63;5111646;28;20186;-62
2021/07/20 07:23:00;;;;;;;12.13;9.17;;;;;;;27.21;56.76;100863.44;5109951;28;20888;-59
2021/07/20 07:25:25;;;;;;;10.50;8.20;;;;;;;27.25;55.14;100881.75;5111958;28;20632;-59
2021/07/20 07:27:53;;;;;;;11.03;8.50;;;;;;;27.43;55.34;100877.31;5092102;28;20268;-62
2021/07/20 07:30:20;;;;;;;9.10;8.13;;;;;;;27.01;54.19;100866.81;5111452;28;20180;-61
2021/07/20 07:32:47;;;;;;;9.93;8.23;;;;;;;26.83;53.42;100782.31;5109731;28;20621;-62
2021/07/20 07:35:12;;;;;;;9.40;8.00;;;;;;;27.47;53.27;100875.69;5110923;28;20284;-59
2021/07/20 07:37:39;;;;;;;9.07;8.17;;;;;;;27.40;53.54;100876.31;5110725;28;20617;-62
2021/07/20 07:40:07;;;;;;;10.53;8.10;;;;;;;26.50;53.69;100765.75;5111102;28;20647;-61
2021/07/20 07:42:35;;;;;;;10.30;7.90;;;;;;;27.23;53.92;100861.59;5109637;28;20229;-62
2021/07/20 07:45:01;;;;;;;8.93;7.33;;;;;;;27.40;53.16;100864.16;5110755;28;20218;-62
2021/07/20 07:47:27;;;;;;;8.43;7.43;;;;;;;27.11;53.51;100820.38;5110702;28;20392;-62
2021/07/20 07:49:53;;;;;;;8.73;7.67;;;;;;;27.46;53.80;100862.75;5109883;28;20702;-62
2021/07/20 07:52:19;;;;;;;10.60;8.27;;;;;;;27.49;53.43;100852.38;5110003;28;20239;-61
2021/07/20 07:54:46;;;;;;;10.43;7.90;;;;;;;27.43;53.52;100868.78;5110660;28;20205;-62
2021/07/20 07:57:15;;;;;;;10.23;8.30;;;;;;;26.69;54.01;100755.16;5109924;28;20643;-61
2021/07/20 07:59:41;;;;;;;10.57;8.13;;;;;;;27.45;54.38;100849.84;5110663;28;20186;-60
2021/07/20 08:02:11;;;;;;;10.98;7.68;;;;;;;27.66;54.54;100847.13;5108820;28;20200;-61
2021/07/20 08:04:40;;;;;;;9.18;7.80;;;;;;;27.46;53.31;100844.91;5109026;28;20174;-62
2021/07/20 08:07:06;;;;;;;8.38;7.57;;;;;;;26.51;55.04;100764.44;5110284;28;20810;-61
2021/07/20 08:09:33;;;;;;;10.10;8.07;;;;;;;27.20;55.08;100851.31;5108978;28;20190;-61
2021/07/20 08:12:01;;;;;;;11.27;7.63;;;;;;;27.21;54.15;100835.75;5108531;28;20185;-61
2021/07/20 08:14:28;;;;;;;9.63;8.27;;;;;;;27.43;54.79;100843.16;5102371;28;20207;-61
2021/07/20 08:16:59;;;;;;;10.18;7.75;;;;;;;27.57;54.21;100848.31;5102490;28;20180;-59
2021/07/20 08:19:31;;;;;;;9.68;8.02;;;;;;;27.76;54.00;100842.53;5110098;28;20186;-62
2021/07/20 08:22:03;;;;;;;9.55;8.23;;;;;;;27.25;53.84;100744.38;5097493;28;20659;-62
2021/07/20 08:24:30;;;;;;;10.05;8.52;;;;;;;28.07;53.83;100841.69;5108723;28;20223;-61
2021/07/20 08:27:11;;;;;;;9.20;7.93;;;;;;;28.28;52.99;100842.56;5108894;28;20186;-61
2021/07/20 08:29:39;;;;;;;9.73;8.63;;;;;;;28.61;51.89;100848.31;5104961;28;20274;-61
2021/07/20 08:32:09;;;;;;;9.40;8.45;;;;;;;28.76;51.51;100842.81;5105525;28;20195;-61
2021/07/20 08:34:42;;;;;;;10.38;8.60;;;;;;;28.25;52.28;100761.78;5109959;28;20717;-67
2021/07/20 08:37:09;;;;;;;8.98;8.07;;;;;;;28.74;52.14;100839.75;5109693;28;20190;-66
2021/07/20 08:39:35;;;;;;;9.32;8.02;;;;;;;28.87;52.28;100822.56;5109537;28;20190;-68
2021/07/20 08:42:14;;;;;;;8.55;7.45;;;;;;;28.16;50.97;100733.00;5095580;28;20264;-68
2021/07/20 08:45:02;;;;;;;7.57;6.65;;;;;;;28.93;51.44;100839.56;5087669;28;20268;-68
2021/07/20 08:47:50;;;;;;;7.93;7.10;;;;;;;28.78;50.45;100831.63;5088443;28;20200;-67
2021/07/20 08:50:28;;;;;;;9.60;7.80;;;;;;;28.89;51.26;100837.06;5089440;28;20190;-67
2021/07/20 08:53:17;;;;;;;8.82;7.30;;;;;;;29.03;50.54;100835.69;5083867;28;20239;-67
2021/07/20 08:55:44;;;;;;;8.90;7.13;;;;;;;28.19;49.80;100718.41;5071017;28;20260;-66
2021/07/20 08:58:34;;;;;;;9.18;7.13;;;;;;;28.86;50.93;100823.16;5060275;28;20187;-68
2021/07/20 09:01:11;;;;;;;7.30;6.20;;;;;;;28.47;51.25;100758.47;5076663;28;20261;-67
2021/07/20 09:03:48;;;;;;;8.05;6.32;;;;;;;28.75;50.15;100832.72;5085421;28;20228;-67
2021/07/20 09:06:28;;;;;;;6.82;6.13;;;;;;;29.02;50.21;100831.31;5088861;28;20186;-67
2021/07/20 09:09:08;;;;;;;6.53;5.82;;;;;;;29.26;50.16;100827.34;5088018;28;20243;-67
2021/07/20 09:11:52;;;;;;;7.53;6.15;;;;;;;29.25;49.60;100825.81;5088982;28;20706;-67
2021/07/20 09:14:27;;;;;;;7.03;5.90;;;;;;;29.48;49.56;100823.94;5084390;28;20287;-67
2021/07/20 09:17:01;;;;;;;7.97;5.95;;;;;;;29.45;49.82;100825.81;5086374;28;20190;-67
2021/07/20 09:19:52;;;;;;;6.30;5.55;;;;;;;29.21;49.95;100823.31;5084030;28;20262;-68
2021/07/20 09:22:21;;;;;;;6.38;5.40;;;;;;;29.58;49.91;100831.47;5083016;28;20254;-67
2021/07/20 09:24:57;;;;;;;6.63;5.43;;;;;;;29.60;50.10;100839.47;5087591;28;20185;-67
2021/07/20 09:27:35;;;;;;;5.20;4.70;;;;;;;29.52;49.30;100825.09;5087671;28;20178;-67
2021/07/20 09:30:06;;;;;;;6.10;4.63;;;;;;;29.34;49.33;100831.06;5087028;28;20187;-67
2021/07/20 09:33:08;;;;;;;5.93;4.60;;;;;;;28.99;48.80;100831.66;5085861;28;20205;-67
2021/07/20 09:35:55;;;;;;;6.13;5.03;;;;;;;29.33;49.48;100824.56;5083066;28;20668;-67
2021/07/20 09:38:42;;;;;;;5.22;4.70;;;;;;;29.43;48.13;100817.03;5083813;28;20216;-67
2021/07/20 09:41:23;;;;;;;6.68;5.30;;;;;;;29.58;48.08;100817.19;5071826;28;20691;-67
2021/07/20 09:44:12;;;;;;;6.43;5.25;;;;;;;29.64;48.26;100831.31;5106190;28;20261;-67
2021/07/20 09:46:54;;;;;;;5.28;4.63;;;;;;;29.90;46.10;100817.59;5101599;28;20245;-67
2021/07/20 09:49:37;;;;;;;6.28;4.70;;;;;;;30.02;47.54;100821.66;5096516;28;20549;-67
2021/07/20 09:52:41;;;;;;;5.03;4.53;;;;;;;29.94;46.00;100815.13;5101594;28;20205;-67
2021/07/20 09:55:41;;;;;;;7.22;4.75;;;;;;;30.13;44.43;100814.88;5097033;28;20671;-67
2021/07/20 09:58:25;;;;;;;5.07;4.50;;;;;;;30.48;45.86;100809.16;5055306;28;20715;-67
2021/07/20 10:00:51;;;;;;;6.90;4.78;;;;;;;30.54;45.12;100812.59;5106058;28;20171;-68
2021/07/20 10:03:25;;;;;;;6.22;5.20;;;;;;;29.63;46.49;100804.09;5107467;28;20535;-65
2021/07/20 10:06:13;;;;;;;6.15;4.78;;;;;;;29.50;47.50;100810.63;5106939;28;20169;-66
2021/07/20 10:08:53;;;;;;;5.53;4.65;;;;;;;29.60;46.90;100803.13;5107431;28;20537;-66
2021/07/20 10:11:27;;;;;;;5.43;4.00;;;;;;;29.88;43.90;100800.25;5108045;28;20173;-67
2021/07/20 10:14:01;;;;;;;5.40;4.00;;;;;;;29.87;43.85;100786.53;5109323;28;20219;-67
2021/07/20 10:16:42;;;;;;;5.55;4.20;;;;;;;30.17;44.42;100792.44;5112867;28;20197;-67
2021/07/20 10:19:10;;;;;;;5.82;3.90;;;;;;;30.10;44.94;100791.03;5112427;28;20173;-67
2021/07/20 10:21:40;;;;;;;5.80;4.15;;;;;;;30.47;44.09;100789.69;5111788;28;20178;-68
2021/07/20 10:24:14;;;;;;;4.68;4.00;;;;;;;30.46;43.58;100774.63;5111310;28;20666;-67
2021/07/20 10:27:14;;;;;;;5.18;4.13;;;;;;;30.67;42.36;100768.81;5111894;28;20260;-67
2021/07/20 10:29:55;;;;;;;5.53;3.97;;;;;;;30.86;42.24;100749.94;5109437;28;20188;-67
2021/07/20 10:32:32;;;;;;;7.38;4.20;;;;;;;31.10;42.96;100780.88;5111990;28;20262;-68
2021/07/20 10:35:03;;;;;;;6.53;4.72;;;;;;;30.99;44.36;100789.06;5112349;28;20190;-67
2021/07/20 10:37:31;;;;;;;5.65;4.35;;;;;;;31.08;44.25;100788.50;5111845;28;20235;-67
2021/07/20 10:40:07;;;;;;;8.82;4.68;;;;;;;31.11;44.99;100785.25;5097224;28;20178;-67
2021/07/20 10:42:44;;;;;;;6.30;4.75;;;;;;;31.10;43.82;100780.09;5110761;28;20217;-66
2021/07/20 10:45:15;;;;;;;7.53;4.50;;;;;;;31.10;42.78;100778.00;5109437;28;20165;-67
2021/07/20 10:47:55;;;;;;;5.88;4.50;;;;;;;31.26;43.22;100773.84;5107482;28;20615;-67
2021/07/20 10:50:43;;;;;;;7.82;4.65;;;;;;;30.92;42.39;100767.69;5108272;28;20224;-67
2021/07/20 10:53:31;;;;;;;5.53;4.30;;;;;;;30.80;41.61;100743.66;5108369;28;20177;-67
2021/07/20 10:56:06;;;;;;;6.75;4.80;;;;;;;30.96;40.21;100765.22;5109541;28;20227;-67
2021/07/20 10:58:43;;;;;;;6.35;4.18;;;;;;;31.18;40.47;100752.25;5110683;28;20554;-67
2021/07/20 11:01:16;;;;;;;7.35;4.45;;;;;;;31.24;41.02;100747.13;5108971;28;20172;-67
2021/07/20 11:04:04;;;;;;;5.20;4.70;;;;;;;31.30;43.21;100747.69;5110566;28;20171;-67
2021/07/20 11:06:33;;;;;;;6.80;5.05;;;;;;;31.52;41.97;100746.91;5108836;28;20537;-67
2021/07/20 11:09:01;;;;;;;5.00;4.50;;;;;;;31.35;41.23;100743.88;5110093;28;20568;-67
2021/07/20 11:11:39;;;;;;;5.65;4.90;;;;;;;31.51;40.55;100748.22;5111763;28;20178;-67
2021/07/20 11:14:05;;;;;;;4.97;4.47;;;;;;;30.57;41.79;100641.94;5109883;28;20200;-67
2021/07/20 11:16:32;;;;;;;5.88;4.85;;;;;;;31.24;41.08;100750.00;5111574;28;20248;-67
2021/07/20 11:19:00;;;;;;;7.95;4.70;;;;;;;31.10;41.40;100734.31;5110476;28;20617;-67
2021/07/20 11:21:28;;;;;;;6.25;4.00;;;;;;;31.05;41.12;100746.72;5111476;28;20185;-67
2021/07/20 11:23:54;;;;;;;6.45;3.63;;;;;;;31.13;41.39;100736.81;5109820;28;20260;-68
2021/07/20 11:26:21;;;;;;;7.55;3.50;;;;;;;31.37;40.38;100749.81;5111617;28;20309;-67
2021/07/20 11:28:47;;;;;;;4.50;3.42;;;;;;;31.45;39.83;100739.84;5110649;28;20185;-67
2021/07/20 11:31:20;;;;;;;4.28;3.40;;;;;;;31.23;39.37;100668.31;5111295;28;20212;-67
2021/07/20 11:33:50;;;;;;;4.30;3.58;;;;;;;32.14;39.25;100729.75;5109991;28;20194;-67